map of GCH home
Great Circle Mapper logo
GCH - Airport
Location
City:  Gachsaran, Iran
ICAO / IATA:OIAH / GCH

Details
Type:Airport (Aerodrome, Airfield)
Latitude:3020'15"N (30.337567)
Longitude:5049'41"E (50.827964)
Datum:WGS 1984
Elevation:2414 ft (736 m)
Runways:1
Longest:6070 × 148 ft (1850 × 45 m), paved

Time
Time Zone:UTC+3:30 (DST+4:30)
Local Time:

Weather
METAR:OIAH 231300Z 27014KT 9999 SCT040 41/02 Q1006

Related Locations
Nearby:
Farthest:GMR: 11824 mi / 19029 km
Mangareva [Totegegie], Gambier Islands, PF

Find:

   beyond  
but within

Other Information
Maps:
NOTAMs:
Links:
Sources:

  
flag of Iran   

Sectional Chart

Flight Planning
at skyvector.com

Satellite Image

Google Maps Satellite View

 

Copyright © 2004-2014 Karl L. Swartz. All rights reserved.
The Great Circle Mapper name and logo are trademarks of the Great Circle Mapper.
All other trademarks mentioned herein belong to their respective owners.
Please see credits for attibutions and further copyright information.

  Follow gcmap on Facebook Follow gcmap on Twitter

hCard Microformat

Geo Microformat